sensor_id;sensor_type;location;lat;lon;timestamp;pressure;altitude;pressure_sealevel;temperature;humidity
45071;BME280;30836;48.906;9.140;2022-08-19T00:00:08;981.57;;;28.55;41.90
45071;BME280;30836;48.906;9.140;2022-08-19T00:01:10;981.57;;;28.43;42.03
45071;BME280;30836;48.906;9.140;2022-08-19T00:02:13;981.53;;;28.32;42.30
45071;BME280;30836;48.906;9.140;2022-08-19T00:03:14;981.51;;;28.22;42.43
45071;BME280;30836;48.906;9.140;2022-08-19T00:04:15;981.53;;;28.13;42.72
45071;BME280;30836;48.906;9.140;2022-08-19T00:05:17;981.53;;;28.06;42.81
45071;BME280;30836;48.906;9.140;2022-08-19T00:06:19;981.51;;;28.00;42.92
45071;BME280;30836;48.906;9.140;2022-08-19T00:07:19;981.53;;;27.93;43.17
45071;BME280;30836;48.906;9.140;2022-08-19T00:08:20;981.55;;;27.83;43.40
45071;BME280;30836;48.906;9.140;2022-08-19T00:09:21;981.53;;;27.73;43.77
45071;BME280;30836;48.906;9.140;2022-08-19T00:10:23;981.53;;;27.62;43.89
45071;BME280;30836;48.906;9.140;2022-08-19T00:11:24;981.53;;;27.55;43.93
45071;BME280;30836;48.906;9.140;2022-08-19T00:12:24;981.53;;;27.48;44.26
45071;BME280;30836;48.906;9.140;2022-08-19T00:13:24;981.51;;;27.37;44.47
45071;BME280;30836;48.906;9.140;2022-08-19T00:14:25;981.53;;;27.29;44.55
45071;BME280;30836;48.906;9.140;2022-08-19T00:15:26;981.53;;;27.23;44.67
45071;BME280;30836;48.906;9.140;2022-08-19T00:16:27;981.53;;;27.21;44.54
45071;BME280;30836;48.906;9.140;2022-08-19T00:17:27;981.51;;;27.17;44.95
45071;BME280;30836;48.906;9.140;2022-08-19T00:18:28;981.51;;;27.11;44.89
45071;BME280;30836;48.906;9.140;2022-08-19T00:19:28;981.55;;;27.10;44.85
45071;BME280;30836;48.906;9.140;2022-08-19T00:20:29;981.57;;;27.09;44.88
45071;BME280;30836;48.906;9.140;2022-08-19T00:21:29;981.59;;;27.10;44.83
45071;BME280;30836;48.906;9.140;2022-08-19T00:22:30;981.57;;;27.09;45.02
45071;BME280;30836;48.906;9.140;2022-08-19T00:23:30;981.61;;;27.03;45.18
45071;BME280;30836;48.906;9.140;2022-08-19T00:24:31;981.63;;;26.95;45.35
45071;BME280;30836;48.906;9.140;2022-08-19T00:25:32;981.63;;;26.90;45.25
45071;BME280;30836;48.906;9.140;2022-08-19T00:26:33;981.61;;;26.92;45.16
45071;BME280;30836;48.906;9.140;2022-08-19T00:27:34;981.59;;;26.96;45.10
45071;BME280;30836;48.906;9.140;2022-08-19T00:28:34;981.57;;;27.00;45.03
45071;BME280;30836;48.906;9.140;2022-08-19T00:29:35;981.59;;;27.01;45.10
45071;BME280;30836;48.906;9.140;2022-08-19T00:30:36;981.57;;;27.02;45.11
45071;BME280;30836;48.906;9.140;2022-08-19T00:31:37;981.55;;;27.03;45.00
45071;BME280;30836;48.906;9.140;2022-08-19T00:32:38;981.57;;;27.02;45.24
45071;BME280;30836;48.906;9.140;2022-08-19T00:33:38;981.57;;;27.00;45.11
45071;BME280;30836;48.906;9.140;2022-08-19T00:34:39;981.59;;;27.00;45.23
45071;BME280;30836;48.906;9.140;2022-08-19T00:35:39;981.59;;;26.97;45.37
45071;BME280;30836;48.906;9.140;2022-08-19T00:36:40;981.59;;;26.89;45.73
45071;BME280;30836;48.906;9.140;2022-08-19T00:37:42;981.57;;;26.84;45.59
45071;BME280;30836;48.906;9.140;2022-08-19T00:38:42;981.57;;;26.90;45.18
45071;BME280;30836;48.906;9.140;2022-08-19T00:39:43;981.55;;;27.05;44.73
45071;BME280;30836;48.906;9.140;2022-08-19T00:40:43;981.49;;;27.22;44.42
45071;BME280;30836;48.906;9.140;2022-08-19T00:41:44;981.47;;;27.37;44.15
45071;BME280;30836;48.906;9.140;2022-08-19T00:42:46;981.43;;;27.48;44.02
45071;BME280;30836;48.906;9.140;2022-08-19T00:44:57;981.35;;;27.63;43.66
45071;BME280;30836;48.906;9.140;2022-08-19T00:45:58;981.31;;;27.70;43.63
45071;BME280;30836;48.906;9.140;2022-08-19T00:46:09;981.30;;;27.71;43.66
45071;BME280;30836;48.906;9.140;2022-08-19T00:47:09;981.24;;;27.71;43.63
45071;BME280;30836;48.906;9.140;2022-08-19T00:48:10;981.22;;;27.65;44.07
45071;BME280;30836;48.906;9.140;2022-08-19T00:49:12;981.22;;;27.54;44.21
45071;BME280;30836;48.906;9.140;2022-08-19T00:50:19;981.20;;;27.47;44.19
45071;BME280;30836;48.906;9.140;2022-08-19T00:51:21;981.22;;;27.48;44.04
45071;BME280;30836;48.906;9.140;2022-08-19T00:52:23;981.20;;;27.53;43.90
45071;BME280;30836;48.906;9.140;2022-08-19T00:53:27;981.22;;;27.61;43.64
45071;BME280;30836;48.906;9.140;2022-08-19T00:54:30;981.22;;;27.68;43.56
45071;BME280;30836;48.906;9.140;2022-08-19T00:55:31;981.26;;;27.70;43.62
45071;BME280;30836;48.906;9.140;2022-08-19T00:56:32;981.26;;;27.71;43.54
45071;BME280;30836;48.906;9.140;2022-08-19T00:57:35;981.30;;;27.76;43.30
45071;BME280;30836;48.906;9.140;2022-08-19T00:58:38;981.30;;;27.80;43.38
45071;BME280;30836;48.906;9.140;2022-08-19T00:59:38;981.31;;;27.81;43.26
45071;BME280;30836;48.906;9.140;2022-08-19T01:00:41;981.31;;;27.88;43.05
45071;BME280;30836;48.906;9.140;2022-08-19T01:01:42;981.33;;;27.97;42.85
45071;BME280;30836;48.906;9.140;2022-08-19T01:02:44;981.37;;;28.05;42.73
45071;BME280;30836;48.906;9.140;2022-08-19T01:03:44;981.37;;;28.10;42.66
45071;BME280;30836;48.906;9.140;2022-08-19T01:04:45;981.39;;;28.13;42.62
45071;BME280;30836;48.906;9.140;2022-08-19T01:05:46;981.45;;;28.14;42.69
45071;BME280;30836;48.906;9.140;2022-08-19T01:06:48;981.45;;;28.10;42.92
45071;BME280;30836;48.906;9.140;2022-08-19T01:07:49;981.45;;;28.01;43.06
45071;BME280;30836;48.906;9.140;2022-08-19T01:08:50;981.49;;;27.92;43.23
45071;BME280;30836;48.906;9.140;2022-08-19T01:09:50;981.55;;;27.89;43.13
45071;BME280;30836;48.906;9.140;2022-08-19T01:10:55;981.53;;;27.93;42.85
45071;BME280;30836;48.906;9.140;2022-08-19T01:11:57;981.59;;;28.02;42.66
45071;BME280;30836;48.906;9.140;2022-08-19T01:12:58;981.57;;;28.10;42.57
45071;BME280;30836;48.906;9.140;2022-08-19T01:14:01;981.61;;;28.15;42.53
45071;BME280;30836;48.906;9.140;2022-08-19T01:15:03;981.61;;;28.20;42.46
45071;BME280;30836;48.906;9.140;2022-08-19T01:16:08;981.57;;;28.23;42.37
45071;BME280;30836;48.906;9.140;2022-08-19T01:17:11;981.57;;;28.23;42.44
45071;BME280;30836;48.906;9.140;2022-08-19T01:18:12;981.53;;;28.19;42.61
45071;BME280;30836;48.906;9.140;2022-08-19T01:19:18;981.55;;;28.11;42.81
45071;BME280;30836;48.906;9.140;2022-08-19T01:20:25;981.49;;;28.03;42.88
45071;BME280;30836;48.906;9.140;2022-08-19T01:22:35;981.53;;;28.05;42.64
45071;BME280;30836;48.906;9.140;2022-08-19T01:23:43;981.51;;;28.08;42.61
45071;BME280;30836;48.906;9.140;2022-08-19T01:24:44;981.51;;;28.12;42.52
45071;BME280;30836;48.906;9.140;2022-08-19T01:25:47;981.53;;;28.15;42.52
45071;BME280;30836;48.906;9.140;2022-08-19T01:26:50;981.49;;;28.16;42.49
45071;BME280;30836;48.906;9.140;2022-08-19T01:27:51;981.49;;;28.10;42.89
45071;BME280;30836;48.906;9.140;2022-08-19T01:28:53;981.49;;;28.01;42.92
45071;BME280;30836;48.906;9.140;2022-08-19T01:29:55;981.47;;;27.99;42.90
45071;BME280;30836;48.906;9.140;2022-08-19T01:30:55;981.47;;;28.01;42.73
45071;BME280;30836;48.906;9.140;2022-08-19T01:31:56;981.45;;;28.05;42.61
45071;BME280;30836;48.906;9.140;2022-08-19T01:32:58;981.45;;;28.10;42.56
45071;BME280;30836;48.906;9.140;2022-08-19T01:34:00;981.49;;;28.16;42.39
45071;BME280;30836;48.906;9.140;2022-08-19T01:35:01;981.49;;;28.20;42.38
45071;BME280;30836;48.906;9.140;2022-08-19T01:36:04;981.49;;;28.21;42.37
45071;BME280;30836;48.906;9.140;2022-08-19T01:37:10;981.53;;;28.22;42.27
45071;BME280;30836;48.906;9.140;2022-08-19T01:39:24;981.53;;;28.22;42.42
45071;BME280;30836;48.906;9.140;2022-08-19T01:40:29;981.47;;;28.22;42.32
45071;BME280;30836;48.906;9.140;2022-08-19T01:41:32;981.45;;;28.23;42.33
45071;BME280;30836;48.906;9.140;2022-08-19T01:42:33;981.43;;;28.19;42.69
45071;BME280;30836;48.906;9.140;2022-08-19T01:43:33;981.41;;;28.10;42.83
45071;BME280;30836;48.906;9.140;2022-08-19T01:44:34;981.37;;;28.05;42.71
45071;BME280;30836;48.906;9.140;2022-08-19T01:45:35;981.37;;;28.01;42.94
45071;BME280;30836;48.906;9.140;2022-08-19T01:46:36;981.37;;;28.00;42.77
45071;BME280;30836;48.906;9.140;2022-08-19T01:47:37;981.37;;;28.01;42.94
45071;BME280;30836;48.906;9.140;2022-08-19T01:48:38;981.35;;;28.01;42.77
45071;BME280;30836;48.906;9.140;2022-08-19T01:49:44;981.39;;;28.04;42.67
45071;BME280;30836;48.906;9.140;2022-08-19T01:50:45;981.39;;;28.07;42.70
45071;BME280;30836;48.906;9.140;2022-08-19T01:51:46;981.39;;;28.02;43.06
45071;BME280;30836;48.906;9.140;2022-08-19T01:52:47;981.39;;;27.88;43.58
45071;BME280;30836;48.906;9.140;2022-08-19T01:53:48;981.37;;;27.77;43.48
45071;BME280;30836;48.906;9.140;2022-08-19T01:54:49;981.39;;;27.71;43.66
45071;BME280;30836;48.906;9.140;2022-08-19T01:55:50;981.37;;;27.63;43.74
45071;BME280;30836;48.906;9.140;2022-08-19T01:56:51;981.35;;;27.58;43.88
45071;BME280;30836;48.906;9.140;2022-08-19T01:57:55;981.33;;;27.57;43.80
45071;BME280;30836;48.906;9.140;2022-08-19T01:59:00;981.31;;;27.54;44.02
45071;BME280;30836;48.906;9.140;2022-08-19T02:00:05;981.26;;;27.46;44.35
45071;BME280;30836;48.906;9.140;2022-08-19T02:01:09;981.30;;;27.33;44.66
45071;BME280;30836;48.906;9.140;2022-08-19T02:02:10;981.30;;;27.12;45.54
45071;BME280;30836;48.906;9.140;2022-08-19T02:03:10;981.24;;;26.86;45.89
45071;BME280;30836;48.906;9.140;2022-08-19T02:04:12;981.26;;;26.74;45.73
45071;BME280;30836;48.906;9.140;2022-08-19T02:05:12;981.26;;;26.71;45.81
45071;BME280;30836;48.906;9.140;2022-08-19T02:06:13;981.28;;;26.69;45.87
45071;BME280;30836;48.906;9.140;2022-08-19T02:07:13;981.30;;;26.68;45.89
45071;BME280;30836;48.906;9.140;2022-08-19T02:08:14;981.33;;;26.67;45.94
45071;BME280;30836;48.906;9.140;2022-08-19T02:09:14;981.37;;;26.68;45.89
45071;BME280;30836;48.906;9.140;2022-08-19T02:10:17;981.43;;;26.69;45.81
45071;BME280;30836;48.906;9.140;2022-08-19T02:10:30;981.47;;;26.62;45.94
45071;BME280;30836;48.906;9.140;2022-08-19T02:11:32;981.45;;;26.62;46.11
45071;BME280;30836;48.906;9.140;2022-08-19T02:12:34;981.49;;;26.61;46.12
45071;BME280;30836;48.906;9.140;2022-08-19T02:13:35;981.51;;;26.59;46.24
45071;BME280;30836;48.906;9.140;2022-08-19T02:14:36;981.53;;;26.55;46.38
45071;BME280;30836;48.906;9.140;2022-08-19T02:15:37;981.53;;;26.53;46.29
45071;BME280;30836;48.906;9.140;2022-08-19T02:16:37;981.57;;;26.52;46.42
45071;BME280;30836;48.906;9.140;2022-08-19T02:17:38;981.57;;;26.51;46.35
45071;BME280;30836;48.906;9.140;2022-08-19T02:18:39;981.53;;;26.51;46.47
45071;BME280;30836;48.906;9.140;2022-08-19T02:19:40;981.51;;;26.46;46.77
45071;BME280;30836;48.906;9.140;2022-08-19T02:20:41;981.45;;;26.38;46.86
45071;BME280;30836;48.906;9.140;2022-08-19T02:20:53;981.45;;;26.20;47.02
45071;BME280;30836;48.906;9.140;2022-08-19T02:21:53;981.43;;;26.20;47.19
45071;BME280;30836;48.906;9.140;2022-08-19T02:22:53;981.43;;;26.16;47.54
45071;BME280;30836;48.906;9.140;2022-08-19T02:23:54;981.39;;;26.10;47.48
45071;BME280;30836;48.906;9.140;2022-08-19T02:24:55;981.37;;;26.02;48.05
45071;BME280;30836;48.906;9.140;2022-08-19T02:25:56;981.39;;;25.90;48.12
45071;BME280;30836;48.906;9.140;2022-08-19T02:26:56;981.37;;;25.82;48.38
45071;BME280;30836;48.906;9.140;2022-08-19T02:27:57;981.39;;;25.76;48.46
45071;BME280;30836;48.906;9.140;2022-08-19T02:28:57;981.39;;;25.73;48.42
45071;BME280;30836;48.906;9.140;2022-08-19T02:29:58;981.39;;;25.72;48.61
45071;BME280;30836;48.906;9.140;2022-08-19T02:30:59;981.39;;;25.73;48.29
45071;BME280;30836;48.906;9.140;2022-08-19T02:31:59;981.41;;;25.76;48.42
45071;BME280;30836;48.906;9.140;2022-08-19T02:33:00;981.43;;;25.75;48.44
45071;BME280;30836;48.906;9.140;2022-08-19T02:34:00;981.41;;;25.70;48.75
45071;BME280;30836;48.906;9.140;2022-08-19T02:35:01;981.41;;;25.63;48.76
45071;BME280;30836;48.906;9.140;2022-08-19T02:36:03;981.43;;;25.60;48.83
45071;BME280;30836;48.906;9.140;2022-08-19T02:37:05;981.41;;;25.62;48.53
45071;BME280;30836;48.906;9.140;2022-08-19T02:38:06;981.45;;;25.70;48.41
45071;BME280;30836;48.906;9.140;2022-08-19T02:39:06;981.45;;;25.84;47.81
45071;BME280;30836;48.906;9.140;2022-08-19T02:40:07;981.45;;;26.01;47.31
45071;BME280;30836;48.906;9.140;2022-08-19T02:41:12;981.45;;;26.17;47.18
45071;BME280;30836;48.906;9.140;2022-08-19T02:42:14;981.45;;;26.32;46.72
45071;BME280;30836;48.906;9.140;2022-08-19T02:43:15;981.47;;;26.47;46.47
45071;BME280;30836;48.906;9.140;2022-08-19T02:44:15;981.45;;;26.58;46.37
45071;BME280;30836;48.906;9.140;2022-08-19T02:45:16;981.45;;;26.65;46.24
45071;BME280;30836;48.906;9.140;2022-08-19T02:46:18;981.47;;;26.71;46.00
45071;BME280;30836;48.906;9.140;2022-08-19T02:47:23;981.47;;;26.74;46.02
45071;BME280;30836;48.906;9.140;2022-08-19T02:48:24;981.43;;;26.68;46.49
45071;BME280;30836;48.906;9.140;2022-08-19T02:49:25;981.47;;;26.58;46.67
45071;BME280;30836;48.906;9.140;2022-08-19T02:50:26;981.43;;;26.51;46.71
45071;BME280;30836;48.906;9.140;2022-08-19T02:51:31;981.43;;;26.48;46.66
45071;BME280;30836;48.906;9.140;2022-08-19T02:52:34;981.43;;;26.46;46.75
45071;BME280;30836;48.906;9.140;2022-08-19T02:53:35;981.45;;;26.35;47.32
45071;BME280;30836;48.906;9.140;2022-08-19T02:54:35;981.43;;;26.21;47.43
45071;BME280;30836;48.906;9.140;2022-08-19T02:55:36;981.39;;;26.18;47.26
45071;BME280;30836;48.906;9.140;2022-08-19T02:56:46;981.41;;;26.19;47.36
45071;BME280;30836;48.906;9.140;2022-08-19T02:57:47;981.41;;;26.18;47.32
45071;BME280;30836;48.906;9.140;2022-08-19T02:58:48;981.41;;;26.19;47.34
45071;BME280;30836;48.906;9.140;2022-08-19T02:59:48;981.43;;;26.21;47.15
45071;BME280;30836;48.906;9.140;2022-08-19T03:00:51;981.41;;;26.24;47.12
45071;BME280;30836;48.906;9.140;2022-08-19T03:01:53;981.37;;;26.23;47.25
45071;BME280;30836;48.906;9.140;2022-08-19T03:02:54;981.35;;;26.21;47.28
45071;BME280;30836;48.906;9.140;2022-08-19T03:03:55;981.33;;;26.20;47.33
45071;BME280;30836;48.906;9.140;2022-08-19T03:04:56;981.35;;;26.20;47.28
45071;BME280;30836;48.906;9.140;2022-08-19T03:07:08;981.35;;;26.20;47.36
45071;BME280;30836;48.906;9.140;2022-08-19T03:08:09;981.30;;;26.18;47.41
45071;BME280;30836;48.906;9.140;2022-08-19T03:09:11;981.31;;;26.18;47.36
45071;BME280;30836;48.906;9.140;2022-08-19T03:10:13;981.33;;;26.16;47.51
45071;BME280;30836;48.906;9.140;2022-08-19T03:12:24;981.30;;;26.11;47.74
45071;BME280;30836;48.906;9.140;2022-08-19T03:13:25;981.37;;;26.06;47.75
45071;BME280;30836;48.906;9.140;2022-08-19T03:14:25;981.39;;;26.07;47.68
45071;BME280;30836;48.906;9.140;2022-08-19T03:15:25;981.43;;;26.07;47.73
45071;BME280;30836;48.906;9.140;2022-08-19T03:16:27;981.43;;;26.06;47.90
45071;BME280;30836;48.906;9.140;2022-08-19T03:17:29;981.43;;;26.04;47.92
45071;BME280;30836;48.906;9.140;2022-08-19T03:18:30;981.41;;;26.04;48.04
45071;BME280;30836;48.906;9.140;2022-08-19T03:19:31;981.43;;;26.02;48.07
45071;BME280;30836;48.906;9.140;2022-08-19T03:20:31;981.45;;;26.00;48.12
45071;BME280;30836;48.906;9.140;2022-08-19T03:21:32;981.47;;;25.99;48.19
45071;BME280;30836;48.906;9.140;2022-08-19T03:22:34;981.49;;;25.99;48.10
45071;BME280;30836;48.906;9.140;2022-08-19T03:23:35;981.47;;;25.98;48.23
45071;BME280;30836;48.906;9.140;2022-08-19T03:24:36;981.51;;;25.90;48.64
45071;BME280;30836;48.906;9.140;2022-08-19T03:25:38;981.53;;;25.80;48.72
45071;BME280;30836;48.906;9.140;2022-08-19T03:26:41;981.53;;;25.77;48.72
45071;BME280;30836;48.906;9.140;2022-08-19T03:27:44;981.59;;;25.87;48.13
45071;BME280;30836;48.906;9.140;2022-08-19T03:28:45;981.59;;;26.04;47.67
45071;BME280;30836;48.906;9.140;2022-08-19T03:28:56;981.61;;;26.30;47.61
45071;BME280;30836;48.906;9.140;2022-08-19T03:29:56;981.61;;;26.33;47.23
45071;BME280;30836;48.906;9.140;2022-08-19T03:31:01;981.57;;;26.36;47.36
45071;BME280;30836;48.906;9.140;2022-08-19T03:32:06;981.59;;;26.35;47.46
45071;BME280;30836;48.906;9.140;2022-08-19T03:33:07;981.59;;;26.39;47.16
45071;BME280;30836;48.906;9.140;2022-08-19T03:34:10;981.59;;;26.50;46.81
45071;BME280;30836;48.906;9.140;2022-08-19T03:35:15;981.59;;;26.62;46.43
45071;BME280;30836;48.906;9.140;2022-08-19T03:36:20;981.57;;;26.67;46.59
45071;BME280;30836;48.906;9.140;2022-08-19T03:37:22;981.55;;;26.67;46.37
45071;BME280;30836;48.906;9.140;2022-08-19T03:38:23;981.55;;;26.74;46.27
45071;BME280;30836;48.906;9.140;2022-08-19T03:39:23;981.53;;;26.80;46.33
45071;BME280;30836;48.906;9.140;2022-08-19T03:40:25;981.53;;;26.84;46.19
45071;BME280;30836;48.906;9.140;2022-08-19T03:41:27;981.55;;;26.86;46.30
45071;BME280;30836;48.906;9.140;2022-08-19T03:42:33;981.57;;;26.87;46.09
45071;BME280;30836;48.906;9.140;2022-08-19T03:43:35;981.57;;;26.90;45.99
45071;BME280;30836;48.906;9.140;2022-08-19T03:44:36;981.59;;;26.90;46.03
45071;BME280;30836;48.906;9.140;2022-08-19T03:45:36;981.59;;;26.91;45.95
45071;BME280;30836;48.906;9.140;2022-08-19T03:46:37;981.61;;;26.94;45.99
45071;BME280;30836;48.906;9.140;2022-08-19T03:47:37;981.63;;;26.94;46.10
45071;BME280;30836;48.906;9.140;2022-08-19T03:48:39;981.63;;;26.94;46.01
45071;BME280;30836;48.906;9.140;2022-08-19T03:49:40;981.61;;;26.96;45.77
45071;BME280;30836;48.906;9.140;2022-08-19T03:50:41;981.61;;;26.96;45.97
45071;BME280;30836;48.906;9.140;2022-08-19T03:51:41;981.61;;;26.93;46.02
45071;BME280;30836;48.906;9.140;2022-08-19T03:52:42;981.55;;;26.91;45.99
45071;BME280;30836;48.906;9.140;2022-08-19T03:53:48;981.53;;;26.87;46.13
45071;BME280;30836;48.906;9.140;2022-08-19T03:54:49;981.49;;;26.81;46.28
45071;BME280;30836;48.906;9.140;2022-08-19T03:55:49;981.49;;;26.79;46.07
45071;BME280;30836;48.906;9.140;2022-08-19T03:56:50;981.49;;;26.83;46.09
45071;BME280;30836;48.906;9.140;2022-08-19T03:57:52;981.49;;;26.82;46.16
45071;BME280;30836;48.906;9.140;2022-08-19T03:58:53;981.47;;;26.85;46.01
45071;BME280;30836;48.906;9.140;2022-08-19T03:59:54;981.49;;;26.88;45.92
45071;BME280;30836;48.906;9.140;2022-08-19T04:00:55;981.51;;;26.90;45.85
45071;BME280;30836;48.906;9.140;2022-08-19T04:01:58;981.57;;;26.92;45.79
45071;BME280;30836;48.906;9.140;2022-08-19T04:03:00;981.59;;;26.93;45.87
45071;BME280;30836;48.906;9.140;2022-08-19T04:04:00;981.57;;;26.93;45.78
45071;BME280;30836;48.906;9.140;2022-08-19T04:05:01;981.59;;;26.95;45.82
45071;BME280;30836;48.906;9.140;2022-08-19T04:07:13;981.59;;;26.98;45.74
45071;BME280;30836;48.906;9.140;2022-08-19T04:08:14;981.59;;;26.98;45.83
45071;BME280;30836;48.906;9.140;2022-08-19T04:09:15;981.61;;;26.98;45.80
45071;BME280;30836;48.906;9.140;2022-08-19T04:10:15;981.59;;;26.95;45.89
45071;BME280;30836;48.906;9.140;2022-08-19T04:11:17;981.61;;;26.87;46.13
45071;BME280;30836;48.906;9.140;2022-08-19T04:12:19;981.59;;;26.80;46.09
45071;BME280;30836;48.906;9.140;2022-08-19T04:13:20;981.59;;;26.80;46.04
45071;BME280;30836;48.906;9.140;2022-08-19T04:14:22;981.57;;;26.78;46.06
45071;BME280;30836;48.906;9.140;2022-08-19T04:15:25;981.57;;;26.79;45.90
45071;BME280;30836;48.906;9.140;2022-08-19T04:16:26;981.57;;;26.83;45.95
45071;BME280;30836;48.906;9.140;2022-08-19T04:17:27;981.59;;;26.80;46.06
45071;BME280;30836;48.906;9.140;2022-08-19T04:18:27;981.59;;;26.80;45.96
45071;BME280;30836;48.906;9.140;2022-08-19T04:19:28;981.55;;;26.80;46.02
45071;BME280;30836;48.906;9.140;2022-08-19T04:20:29;981.59;;;26.76;46.07
45071;BME280;30836;48.906;9.140;2022-08-19T04:21:30;981.61;;;26.71;46.37
45071;BME280;30836;48.906;9.140;2022-08-19T04:22:30;981.59;;;26.66;46.37
45071;BME280;30836;48.906;9.140;2022-08-19T04:23:31;981.61;;;26.60;46.58
45071;BME280;30836;48.906;9.140;2022-08-19T04:24:32;981.61;;;26.55;46.52
45071;BME280;30836;48.906;9.140;2022-08-19T04:26:41;981.61;;;26.49;46.76
45071;BME280;30836;48.906;9.140;2022-08-19T04:26:52;981.57;;;26.43;46.77
45071;BME280;30836;48.906;9.140;2022-08-19T04:27:52;981.59;;;26.43;46.69
45071;BME280;30836;48.906;9.140;2022-08-19T04:28:53;981.57;;;26.41;46.92
45071;BME280;30836;48.906;9.140;2022-08-19T04:29:54;981.59;;;26.35;47.13
45071;BME280;30836;48.906;9.140;2022-08-19T04:30:55;981.57;;;26.28;47.26
45071;BME280;30836;48.906;9.140;2022-08-19T04:31:56;981.57;;;26.22;47.40
45071;BME280;30836;48.906;9.140;2022-08-19T04:32:58;981.55;;;26.17;47.50
45071;BME280;30836;48.906;9.140;2022-08-19T04:33:59;981.55;;;26.11;47.68
45071;BME280;30836;48.906;9.140;2022-08-19T04:35:01;981.53;;;26.06;47.67
45071;BME280;30836;48.906;9.140;2022-08-19T04:36:01;981.53;;;26.10;47.35
45071;BME280;30836;48.906;9.140;2022-08-19T04:37:04;981.53;;;26.21;47.00
45071;BME280;30836;48.906;9.140;2022-08-19T04:38:06;981.51;;;26.33;46.81
45071;BME280;30836;48.906;9.140;2022-08-19T04:39:07;981.49;;;26.38;46.94
45071;BME280;30836;48.906;9.140;2022-08-19T04:40:13;981.47;;;26.40;46.66
45071;BME280;30836;48.906;9.140;2022-08-19T04:41:14;981.45;;;26.41;46.84
45071;BME280;30836;48.906;9.140;2022-08-19T04:42:16;981.45;;;26.41;46.67
45071;BME280;30836;48.906;9.140;2022-08-19T04:43:17;981.43;;;26.46;46.65
45071;BME280;30836;48.906;9.140;2022-08-19T04:44:18;981.45;;;26.46;46.75
45071;BME280;30836;48.906;9.140;2022-08-19T04:45:19;981.43;;;26.46;46.56
45071;BME280;30836;48.906;9.140;2022-08-19T04:46:20;981.45;;;26.44;46.82
45071;BME280;30836;48.906;9.140;2022-08-19T04:47:21;981.45;;;26.37;47.03
45071;BME280;30836;48.906;9.140;2022-08-19T04:48:21;981.45;;;26.33;46.97
45071;BME280;30836;48.906;9.140;2022-08-19T04:49:23;981.49;;;26.34;46.82
45071;BME280;30836;48.906;9.140;2022-08-19T04:50:25;981.53;;;26.37;46.70
45071;BME280;30836;48.906;9.140;2022-08-19T04:51:26;981.57;;;26.44;46.47
45071;BME280;30836;48.906;9.140;2022-08-19T04:52:27;981.59;;;26.49;46.58
45071;BME280;30836;48.906;9.140;2022-08-19T04:53:28;981.61;;;26.43;46.95
45071;BME280;30836;48.906;9.140;2022-08-19T04:54:30;981.63;;;26.29;47.28
45071;BME280;30836;48.906;9.140;2022-08-19T04:55:31;981.65;;;26.13;47.81
45071;BME280;30836;48.906;9.140;2022-08-19T04:56:31;981.69;;;25.93;48.41
45071;BME280;30836;48.906;9.140;2022-08-19T04:57:32;981.69;;;25.72;48.88
45071;BME280;30836;48.906;9.140;2022-08-19T04:58:33;981.71;;;25.54;49.24
45071;BME280;30836;48.906;9.140;2022-08-19T04:59:34;981.67;;;25.43;49.18
45071;BME280;30836;48.906;9.140;2022-08-19T05:00:37;981.71;;;25.42;49.04
45071;BME280;30836;48.906;9.140;2022-08-19T05:01:39;981.69;;;25.42;49.12
45071;BME280;30836;48.906;9.140;2022-08-19T05:02:39;981.67;;;25.38;49.38
45071;BME280;30836;48.906;9.140;2022-08-19T05:03:39;981.71;;;25.37;49.15
45071;BME280;30836;48.906;9.140;2022-08-19T05:04:40;981.71;;;25.41;48.97
45071;BME280;30836;48.906;9.140;2022-08-19T05:05:41;981.71;;;25.43;49.15
45071;BME280;30836;48.906;9.140;2022-08-19T05:06:41;981.73;;;25.44;48.92
45071;BME280;30836;48.906;9.140;2022-08-19T05:07:42;981.77;;;25.44;49.25
45071;BME280;30836;48.906;9.140;2022-08-19T05:08:42;981.81;;;25.43;49.04
45071;BME280;30836;48.906;9.140;2022-08-19T05:09:43;981.81;;;25.43;49.22
45071;BME280;30836;48.906;9.140;2022-08-19T05:10:44;981.77;;;25.42;49.10
45071;BME280;30836;48.906;9.140;2022-08-19T05:11:44;981.77;;;25.41;49.29
45071;BME280;30836;48.906;9.140;2022-08-19T05:12:45;981.79;;;25.36;49.45
45071;BME280;30836;48.906;9.140;2022-08-19T05:13:46;981.81;;;25.33;49.34
45071;BME280;30836;48.906;9.140;2022-08-19T05:14:47;981.82;;;25.31;49.56
45071;BME280;30836;48.906;9.140;2022-08-19T05:16:54;981.81;;;25.18;49.61
45071;BME280;30836;48.906;9.140;2022-08-19T05:17:54;981.84;;;25.22;49.69
45071;BME280;30836;48.906;9.140;2022-08-19T05:18:55;981.82;;;25.23;49.59
45071;BME280;30836;48.906;9.140;2022-08-19T05:19:56;981.86;;;25.26;49.59
45071;BME280;30836;48.906;9.140;2022-08-19T05:20:56;981.86;;;25.26;49.66
45071;BME280;30836;48.906;9.140;2022-08-19T05:21:57;981.88;;;25.28;49.44
45071;BME280;30836;48.906;9.140;2022-08-19T05:23:00;981.92;;;25.31;49.38
45071;BME280;30836;48.906;9.140;2022-08-19T05:24:03;981.94;;;25.32;49.49
45071;BME280;30836;48.906;9.140;2022-08-19T05:25:06;981.96;;;25.32;49.64
45071;BME280;30836;48.906;9.140;2022-08-19T05:26:08;982.00;;;25.37;49.17
45071;BME280;30836;48.906;9.140;2022-08-19T05:27:09;982.00;;;25.50;48.78
45071;BME280;30836;48.906;9.140;2022-08-19T05:28:09;982.02;;;25.65;48.47
45071;BME280;30836;48.906;9.140;2022-08-19T05:29:10;982.02;;;25.73;48.49
45071;BME280;30836;48.906;9.140;2022-08-19T05:30:10;982.04;;;25.77;48.25
45071;BME280;30836;48.906;9.140;2022-08-19T05:31:12;982.14;;;25.80;48.35
45071;BME280;30836;48.906;9.140;2022-08-19T05:32:12;982.16;;;25.78;48.51
45071;BME280;30836;48.906;9.140;2022-08-19T05:33:13;982.20;;;25.83;48.00
45071;BME280;30836;48.906;9.140;2022-08-19T05:34:13;982.22;;;25.91;48.00
45071;BME280;30836;48.906;9.140;2022-08-19T05:35:14;982.26;;;25.96;47.82
45071;BME280;30836;48.906;9.140;2022-08-19T05:36:14;982.28;;;26.04;47.46
45071;BME280;30836;48.906;9.140;2022-08-19T05:37:15;982.32;;;26.13;47.35
45071;BME280;30836;48.906;9.140;2022-08-19T05:38:18;982.36;;;26.18;47.40
45071;BME280;30836;48.906;9.140;2022-08-19T05:39:20;982.36;;;26.20;47.37